createdAt,value
2022-12-19T00:05:28.169Z,4.28
2022-12-19T00:08:32.584Z,6.78
2022-12-19T00:11:34.056Z,7.78
2022-12-19T00:14:35.380Z,5.80
2022-12-19T00:17:36.681Z,6.82
2022-12-19T00:20:38.604Z,5.00
2022-12-19T00:23:39.893Z,5.30
2022-12-19T00:26:41.233Z,7.80
2022-12-19T00:29:42.502Z,6.57
2022-12-19T00:32:43.886Z,6.65
2022-12-19T00:35:45.149Z,6.38
2022-12-19T00:38:46.878Z,5.93
2022-12-19T00:41:48.170Z,6.88
2022-12-19T00:44:52.635Z,6.80
2022-12-19T00:47:54.146Z,5.57
2022-12-19T00:51:02.278Z,5.25
2022-12-19T00:54:05.416Z,6.85
2022-12-19T00:57:08.031Z,6.35
2022-12-19T01:00:09.695Z,4.97
2022-12-19T01:03:11.063Z,6.60
2022-12-19T01:06:12.405Z,6.30
2022-12-19T01:09:13.789Z,4.47
2022-12-19T01:12:33.831Z,6.75
2022-12-19T01:15:38.708Z,5.40
2022-12-19T01:18:39.984Z,6.60
2022-12-19T01:21:41.334Z,4.70
2022-12-19T01:24:42.695Z,7.78
2022-12-19T01:27:44.018Z,13.80
2022-12-19T01:30:45.464Z,8.23
2022-12-19T01:33:47.152Z,9.25
2022-12-19T01:36:51.648Z,6.85
2022-12-19T01:39:52.930Z,7.18
2022-12-19T01:42:54.205Z,8.10
2022-12-19T01:46:00.540Z,7.68
2022-12-19T01:49:02.851Z,7.03
2022-12-19T01:52:06.318Z,7.03
2022-12-19T01:55:09.292Z,5.90
2022-12-19T01:58:11.404Z,6.10
2022-12-19T02:01:13.168Z,6.97
2022-12-19T02:04:14.890Z,7.28
2022-12-19T02:07:17.384Z,8.07
2022-12-19T02:10:18.753Z,6.30
2022-12-19T02:13:20.869Z,4.80
2022-12-19T02:16:37.470Z,5.78
2022-12-19T02:19:41.843Z,4.78
2022-12-19T02:22:43.059Z,5.80
2022-12-19T02:25:51.240Z,6.05
2022-12-19T02:29:01.567Z,5.30
2022-12-19T02:32:07.052Z,4.75
2022-12-19T02:35:14.393Z,7.45
2022-12-19T02:38:36.366Z,6.13
2022-12-19T02:41:44.708Z,4.72
2022-12-19T02:44:48.907Z,6.47
2022-12-19T02:47:50.594Z,5.38
2022-12-19T02:50:51.843Z,5.28
2022-12-19T02:53:53.113Z,6.95
2022-12-19T02:57:07.846Z,5.78
2022-12-19T03:00:09.247Z,6.35
2022-12-19T03:03:27.190Z,8.27
2022-12-19T03:06:34.033Z,7.03
2022-12-19T03:09:51.894Z,6.82
2022-12-19T03:12:57.760Z,6.95
2022-12-19T03:15:59.562Z,6.85
2022-12-19T03:19:00.968Z,4.40
2022-12-19T03:22:02.294Z,6.18
2022-12-19T03:25:03.699Z,5.80
2022-12-19T03:28:07.003Z,7.38
2022-12-19T03:31:09.764Z,5.97
2022-12-19T03:34:17.084Z,6.38
2022-12-19T03:37:20.843Z,5.85
2022-12-19T03:40:23.624Z,5.72
2022-12-19T03:43:26.587Z,5.00
2022-12-19T03:46:28.095Z,5.63
2022-12-19T03:49:29.488Z,5.95
2022-12-19T03:52:55.799Z,5.78
2022-12-19T03:56:06.629Z,5.28
2022-12-19T03:59:10.631Z,5.57
2022-12-19T04:02:13.762Z,6.72
2022-12-19T04:05:19.924Z,5.90
2022-12-19T04:08:21.435Z,5.80
2022-12-19T04:11:26.297Z,5.55
2022-12-19T04:14:33.075Z,4.82
2022-12-19T04:17:42.312Z,5.32
2022-12-19T04:20:45.608Z,5.70
2022-12-19T04:23:49.440Z,6.07
2022-12-19T04:26:53.205Z,5.50
2022-12-19T04:29:55.722Z,7.13
2022-12-19T04:32:57.391Z,7.53
2022-12-19T04:35:59.599Z,5.90
2022-12-19T04:39:00.862Z,5.25
2022-12-19T04:42:02.143Z,4.93
2022-12-19T04:45:04.591Z,6.38
2022-12-19T04:48:06.310Z,7.70
2022-12-19T04:51:09.520Z,10.27
2022-12-19T04:54:10.748Z,11.23
2022-12-19T04:57:12.062Z,8.75
2022-12-19T05:00:13.862Z,8.85
2022-12-19T05:03:15.257Z,6.57
2022-12-19T05:06:18.110Z,5.50
2022-12-19T05:09:19.439Z,5.50
2022-12-19T05:12:20.659Z,5.57
2022-12-19T05:15:21.917Z,5.97
2022-12-19T05:18:23.200Z,6.65
2022-12-19T05:21:24.511Z,5.13
2022-12-19T05:24:25.854Z,5.97
2022-12-19T05:27:27.125Z,7.32
2022-12-19T05:30:28.394Z,8.85
2022-12-19T05:33:29.703Z,6.32
2022-12-19T05:36:32.750Z,6.93
2022-12-19T05:39:34.971Z,7.47
2022-12-19T05:42:36.259Z,5.97
2022-12-19T05:45:38.725Z,7.10
2022-12-19T05:48:40.011Z,7.10
2022-12-19T05:51:41.774Z,6.10
2022-12-19T05:54:43.146Z,6.63
2022-12-19T05:57:44.466Z,6.13
2022-12-19T06:00:45.753Z,6.90
2022-12-19T06:03:47.177Z,5.93
2022-12-19T06:06:48.491Z,4.93
2022-12-19T06:09:49.733Z,7.65
2022-12-19T06:12:51.433Z,5.40
2022-12-19T06:15:59.200Z,5.70
2022-12-19T06:19:00.530Z,5.82
2022-12-19T06:22:01.842Z,6.80
2022-12-19T06:25:03.157Z,5.03
2022-12-19T06:28:04.496Z,5.90
2022-12-19T06:31:06.299Z,5.03
2022-12-19T06:34:09.979Z,6.13
2022-12-19T06:37:11.956Z,5.47
2022-12-19T06:40:33.176Z,5.60
2022-12-19T06:43:34.429Z,7.03
2022-12-19T06:46:36.019Z,6.85
2022-12-19T06:49:37.295Z,5.03
2022-12-19T06:52:38.557Z,6.97
2022-12-19T06:55:40.430Z,5.50
2022-12-19T06:58:41.695Z,5.97
2022-12-19T07:02:00.056Z,5.43
2022-12-19T07:08:03.534Z,3.08
2022-12-19T07:11:04.863Z,5.10
2022-12-19T07:14:06.286Z,5.18
2022-12-19T07:17:10.005Z,5.60
2022-12-19T07:20:11.985Z,5.25
2022-12-19T07:23:16.878Z,6.03
2022-12-19T07:26:18.298Z,5.28
2022-12-19T07:29:19.569Z,5.20
2022-12-19T07:32:21.382Z,6.20
2022-12-19T07:35:23.114Z,4.88
2022-12-19T07:38:24.386Z,4.93
2022-12-19T07:41:25.629Z,5.57
2022-12-19T07:44:26.945Z,6.45
2022-12-19T07:47:28.332Z,6.53
2022-12-19T07:50:30.049Z,5.68
2022-12-19T07:53:31.624Z,5.15
2022-12-19T07:56:32.905Z,4.60
2022-12-19T07:59:39.310Z,5.05
2022-12-19T08:02:40.968Z,6.50
2022-12-19T08:05:42.408Z,6.57
2022-12-19T08:08:43.837Z,8.25
2022-12-19T08:11:45.179Z,5.68
2022-12-19T08:14:46.411Z,7.30
2022-12-19T08:17:47.720Z,7.70
2022-12-19T08:20:49.058Z,7.68
2022-12-19T08:23:50.461Z,7.47
2022-12-19T08:26:51.825Z,7.03
2022-12-19T08:29:53.183Z,6.57
2022-12-19T08:32:54.465Z,6.80
2022-12-19T08:35:55.742Z,6.25
2022-12-19T08:38:58.366Z,5.60
2022-12-19T08:42:00.900Z,6.13
2022-12-19T08:45:02.224Z,5.53
2022-12-19T08:48:03.550Z,5.72
2022-12-19T08:51:06.228Z,4.78
2022-12-19T08:54:07.920Z,5.65
2022-12-19T08:57:13.111Z,4.22
2022-12-19T09:00:14.713Z,4.57
2022-12-19T09:03:18.805Z,5.53
2022-12-19T09:06:23.882Z,6.13
2022-12-19T09:09:25.235Z,5.03
2022-12-19T09:12:26.532Z,5.47
2022-12-19T09:15:27.949Z,4.53
2022-12-19T09:18:29.329Z,4.03
2022-12-19T09:21:30.814Z,4.63
2022-12-19T09:24:32.155Z,5.18
2022-12-19T09:28:09.329Z,4.32
2022-12-19T09:30:58.465Z,4.50
2022-12-19T09:33:59.853Z,4.32
2022-12-19T09:37:01.113Z,4.60
2022-12-19T09:40:02.490Z,5.82
2022-12-19T09:43:06.964Z,5.00
2022-12-19T09:46:15.407Z,4.97
2022-12-19T09:49:18.817Z,5.13
2022-12-19T09:52:30.452Z,4.07
2022-12-19T09:55:36.484Z,5.18
2022-12-19T09:58:41.029Z,7.38
2022-12-19T10:02:08.675Z,5.35
2022-12-19T10:06:49.275Z,4.25
2022-12-19T10:09:22.783Z,6.63
2022-12-19T10:12:45.957Z,6.35
2022-12-19T10:16:00.240Z,7.20
2022-12-19T10:19:07.917Z,5.72
2022-12-19T10:22:32.826Z,7.68
2022-12-19T10:25:53.156Z,7.40
2022-12-19T10:28:57.648Z,6.38
2022-12-19T10:32:17.103Z,6.32
2022-12-19T10:35:19.828Z,6.30
2022-12-19T10:38:27.148Z,5.60
2022-12-19T10:41:30.327Z,5.32
2022-12-19T10:47:35.281Z,4.55
2022-12-19T10:50:36.594Z,5.75
2022-12-19T10:53:37.909Z,5.50
2022-12-19T10:56:39.235Z,4.80
2022-12-19T10:59:52.033Z,5.15
2022-12-19T11:03:04.922Z,6.57
2022-12-19T11:06:06.792Z,6.00
2022-12-19T11:09:20.072Z,5.80
2022-12-19T11:16:46.521Z,4.95
2022-12-19T11:19:46.020Z,4.82
2022-12-19T11:29:36.812Z,6.97
2022-12-19T11:29:41.073Z,5.45
2022-12-19T11:30:45.891Z,6.78
2022-12-19T11:33:14.007Z,7.45
2022-12-19T11:36:34.832Z,5.97
2022-12-19T11:39:45.841Z,6.68
2022-12-19T11:42:47.075Z,7.07
2022-12-19T11:45:48.321Z,7.10
2022-12-19T11:48:54.943Z,6.50
2022-12-19T11:52:00.835Z,7.93
2022-12-19T11:55:22.442Z,6.45
2022-12-19T11:58:24.697Z,5.43
2022-12-19T12:01:42.629Z,6.72
2022-12-19T12:04:55.087Z,6.90
2022-12-19T12:09:48.718Z,6.38
2022-12-19T12:22:00.973Z,6.35
2022-12-19T12:28:58.898Z,7.78
2022-12-19T12:31:48.344Z,6.60
2022-12-19T12:31:49.442Z,6.65
2022-12-19T12:32:00.572Z,6.55
2022-12-19T12:35:34.979Z,5.93
2022-12-19T12:40:38.519Z,6.22
2022-12-19T12:43:46.063Z,6.18
2022-12-19T12:46:56.997Z,6.90
2022-12-19T12:50:03.036Z,6.65
2022-12-19T12:53:07.323Z,6.53
2022-12-19T12:56:10.590Z,6.28
2022-12-19T12:59:23.883Z,6.95
2022-12-19T13:02:25.654Z,7.00
2022-12-19T13:05:45.625Z,6.30
2022-12-19T13:08:47.791Z,6.75
2022-12-19T13:12:22.280Z,6.63
2022-12-19T13:15:34.212Z,5.50
2022-12-19T13:18:37.889Z,6.80
2022-12-19T13:21:58.227Z,5.35
2022-12-19T13:25:00.283Z,6.97
2022-12-19T13:28:01.591Z,6.25
2022-12-19T13:31:20.273Z,6.90
2022-12-19T13:34:33.378Z,6.03
2022-12-19T13:39:57.118Z,6.53
2022-12-19T13:41:23.098Z,6.35
2022-12-19T13:44:24.460Z,6.50
2022-12-19T13:47:27.886Z,6.63
2022-12-19T13:50:39.337Z,6.03
2022-12-19T13:56:41.768Z,5.95
2022-12-19T13:59:59.135Z,6.13
2022-12-19T14:03:03.044Z,6.28
2022-12-19T14:06:24.902Z,7.65
2022-12-19T14:11:30.424Z,7.55
2022-12-19T14:13:57.463Z,8.68
2022-12-19T14:16:43.541Z,7.72
2022-12-19T14:19:47.620Z,6.82
2022-12-19T14:22:49.003Z,5.65
2022-12-19T14:28:17.341Z,5.68
2022-12-19T14:29:52.290Z,7.07
2022-12-19T14:33:45.140Z,5.57
2022-12-19T14:36:15.227Z,8.68
2022-12-19T14:39:29.459Z,8.48
2022-12-19T14:43:59.060Z,8.23
2022-12-19T14:51:51.709Z,7.18
2022-12-19T14:54:24.479Z,7.90
2022-12-19T14:54:51.480Z,7.35
2022-12-19T14:57:01.533Z,8.32
2022-12-19T15:01:07.304Z,6.10
2022-12-19T15:03:44.430Z,4.78
2022-12-19T15:07:12.548Z,7.45
2022-12-19T15:11:06.266Z,6.68
2022-12-19T15:14:55.303Z,7.22
2022-12-19T15:17:22.812Z,5.47
2022-12-19T15:20:24.141Z,5.70
2022-12-19T15:23:25.752Z,6.32
2022-12-19T15:26:32.461Z,7.05
2022-12-19T15:29:34.151Z,8.50
2022-12-19T15:32:35.403Z,7.80
2022-12-19T15:35:36.706Z,8.93
2022-12-19T15:38:37.940Z,6.10
2022-12-19T15:41:39.289Z,6.80
2022-12-19T15:44:41.355Z,7.57
2022-12-19T15:47:43.035Z,7.10
2022-12-19T15:50:44.545Z,7.88
2022-12-19T15:53:45.933Z,6.53
2022-12-19T15:56:52.524Z,8.07
2022-12-19T15:59:54.334Z,8.15
2022-12-19T16:03:22.571Z,8.65
2022-12-19T16:06:17.625Z,7.30
2022-12-19T16:09:20.885Z,10.15
2022-12-19T16:12:24.228Z,6.97
2022-12-19T16:15:29.954Z,8.30
2022-12-19T16:22:35.111Z,7.93
2022-12-19T16:25:39.599Z,8.73
2022-12-19T16:28:41.490Z,8.68
2022-12-19T16:31:42.873Z,8.73
2022-12-19T16:34:44.214Z,9.93
2022-12-19T16:37:45.552Z,10.13
2022-12-19T16:40:48.023Z,11.30
2022-12-19T16:43:49.547Z,11.65
2022-12-19T16:46:51.789Z,11.23
2022-12-19T16:49:53.167Z,10.93
2022-12-19T16:52:54.841Z,11.40
2022-12-19T16:55:56.565Z,11.90
2022-12-19T16:58:59.805Z,10.07
2022-12-19T17:02:01.289Z,8.60
2022-12-19T17:05:04.089Z,10.18
2022-12-19T17:08:11.210Z,10.75
2022-12-19T17:11:14.390Z,9.38
2022-12-19T17:14:23.426Z,9.32
2022-12-19T17:17:25.191Z,8.80
2022-12-19T17:20:28.431Z,9.77
2022-12-19T17:23:32.243Z,7.78
2022-12-19T17:26:33.574Z,8.25
2022-12-19T17:29:34.849Z,10.25
2022-12-19T17:32:36.191Z,7.80
2022-12-19T17:35:38.009Z,9.65
2022-12-19T17:38:39.345Z,9.18
2022-12-19T17:41:40.629Z,8.70
2022-12-19T17:44:41.906Z,9.50
2022-12-19T17:47:44.119Z,8.00
2022-12-19T17:50:45.391Z,10.35
2022-12-19T17:53:46.672Z,12.82
2022-12-19T17:56:47.975Z,9.93
2022-12-19T17:59:49.285Z,12.30
2022-12-19T18:02:52.683Z,11.52
2022-12-19T18:05:54.674Z,9.15
2022-12-19T18:08:55.949Z,10.95
2022-12-19T18:11:57.415Z,12.25
2022-12-19T18:14:58.757Z,10.38
2022-12-19T18:18:00.238Z,11.77
2022-12-19T18:21:02.164Z,12.02
2022-12-19T18:24:03.581Z,11.50
2022-12-19T18:27:05.321Z,13.75
2022-12-19T18:30:07.070Z,10.73
2022-12-19T18:33:11.640Z,11.05
2022-12-19T18:36:22.920Z,13.40
2022-12-19T18:39:25.305Z,12.27
2022-12-19T18:42:26.588Z,14.48
2022-12-19T18:45:30.425Z,13.07
2022-12-19T18:48:33.423Z,12.75
2022-12-19T18:51:34.742Z,12.77
2022-12-19T18:54:36.098Z,9.63
2022-12-19T18:57:37.376Z,8.95
2022-12-19T19:00:39.097Z,10.70
2022-12-19T19:03:41.226Z,6.38
2022-12-19T19:06:50.451Z,9.32
2022-12-19T19:09:53.738Z,6.75
2022-12-19T19:12:55.368Z,10.00
2022-12-19T19:16:01.438Z,11.18
2022-12-19T19:19:04.441Z,12.20
2022-12-19T19:22:05.851Z,12.60
2022-12-19T19:25:07.344Z,13.30
2022-12-19T19:28:08.638Z,11.68
2022-12-19T19:31:11.130Z,11.30
2022-12-19T19:34:15.475Z,13.70
2022-12-19T19:37:16.933Z,11.05
2022-12-19T19:40:18.588Z,10.63
2022-12-19T19:43:19.865Z,12.27
2022-12-19T19:46:21.748Z,12.65
2022-12-19T19:49:23.362Z,13.38
2022-12-19T19:52:24.649Z,13.25
2022-12-19T19:55:26.299Z,12.60
2022-12-19T19:58:28.377Z,16.98
2022-12-19T20:01:29.685Z,16.48
2022-12-19T20:04:31.224Z,13.02
2022-12-19T20:07:32.619Z,15.60
2022-12-19T20:10:33.931Z,14.07
2022-12-19T20:13:35.338Z,14.18
2022-12-19T20:16:36.773Z,13.20
2022-12-19T20:19:38.518Z,14.23
2022-12-19T20:22:39.895Z,14.73
2022-12-19T20:25:43.155Z,18.02
2022-12-19T20:28:48.910Z,13.90
2022-12-19T20:31:51.406Z,14.32
2022-12-19T20:34:52.753Z,15.07
2022-12-19T20:37:54.030Z,14.65
2022-12-19T20:40:55.972Z,13.85
2022-12-19T20:43:57.335Z,13.60
2022-12-19T20:46:59.095Z,13.32
2022-12-19T20:50:00.533Z,14.73
2022-12-19T20:53:01.820Z,13.35
2022-12-19T20:56:04.264Z,12.70
2022-12-19T20:59:05.635Z,14.13
2022-12-19T21:02:07.181Z,13.75
2022-12-19T21:05:08.914Z,12.50
2022-12-19T21:08:10.283Z,16.92
2022-12-19T21:11:11.934Z,12.80
2022-12-19T21:14:13.242Z,12.23
2022-12-19T21:17:14.620Z,16.38
2022-12-19T21:20:15.944Z,11.60
2022-12-19T21:23:17.854Z,12.77
2022-12-19T21:26:19.293Z,14.80
2022-12-19T21:29:20.646Z,13.55
2022-12-19T21:32:22.152Z,13.95
2022-12-19T21:35:23.476Z,11.77
2022-12-19T21:38:24.869Z,14.15
2022-12-19T21:41:26.372Z,15.05
2022-12-19T21:44:27.749Z,13.90
2022-12-19T21:47:29.055Z,12.32
2022-12-19T21:50:30.466Z,17.00
2022-12-19T21:53:31.869Z,12.32
2022-12-19T21:56:35.475Z,12.07
2022-12-19T21:59:36.835Z,7.32
2022-12-19T22:02:38.528Z,11.13
2022-12-19T22:05:39.968Z,10.82
2022-12-19T22:08:41.317Z,7.85
2022-12-19T22:11:43.057Z,7.10
2022-12-19T22:14:44.949Z,7.78
2022-12-19T22:17:46.244Z,6.28
2022-12-19T22:20:47.547Z,5.07
2022-12-19T22:23:48.893Z,6.03
2022-12-19T22:26:50.526Z,6.63
2022-12-19T22:29:51.843Z,8.57
2022-12-19T22:32:53.171Z,8.23
2022-12-19T22:35:54.472Z,6.47
2022-12-19T22:38:56.971Z,7.03
2022-12-19T22:41:58.280Z,7.50
2022-12-19T22:44:59.695Z,8.07
2022-12-19T22:48:01.018Z,10.45
2022-12-19T22:51:02.344Z,8.00
2022-12-19T22:54:04.262Z,9.40
2022-12-19T22:57:05.523Z,7.85
2022-12-19T23:00:07.498Z,8.95
2022-12-19T23:03:08.982Z,8.48
2022-12-19T23:06:10.772Z,9.30
2022-12-19T23:09:13.703Z,9.05
2022-12-19T23:12:15.012Z,10.00
2022-12-19T23:15:16.325Z,8.50
2022-12-19T23:18:17.908Z,8.68
2022-12-19T23:21:20.218Z,8.15
2022-12-19T23:24:21.499Z,8.00
2022-12-19T23:27:23.043Z,8.07
2022-12-19T23:30:24.320Z,9.95
2022-12-19T23:33:25.579Z,8.45
2022-12-19T23:37:01.015Z,8.02
2022-12-19T23:39:48.394Z,8.00
2022-12-19T23:42:49.717Z,6.80
2022-12-19T23:45:51.061Z,8.10
2022-12-19T23:48:53.052Z,8.50
2022-12-19T23:51:54.392Z,7.97
2022-12-19T23:54:55.710Z,7.47
2022-12-19T23:57:56.993Z,9.18
